sensor_id;sensor_type;location;lat;lon;timestamp;P1;durP1;ratioP1;P2;durP2;ratioP2
41943;SDS011;27636;52.610;13.244;2023-02-15T00:04:48;30.70;;;11.35;;
41943;SDS011;27636;52.610;13.244;2023-02-15T00:09:53;29.30;;;11.03;;
41943;SDS011;27636;52.610;13.244;2023-02-15T00:14:56;41.20;;;11.07;;
41943;SDS011;27636;52.610;13.244;2023-02-15T00:20:00;28.75;;;11.43;;
41943;SDS011;27636;52.610;13.244;2023-02-15T00:25:05;40.60;;;9.60;;
41943;SDS011;27636;52.610;13.244;2023-02-15T00:30:09;29.70;;;9.45;;
41943;SDS011;27636;52.610;13.244;2023-02-15T00:35:14;29.98;;;10.85;;
41943;SDS011;27636;52.610;13.244;2023-02-15T00:40:19;27.05;;;8.98;;
41943;SDS011;27636;52.610;13.244;2023-02-15T00:45:24;31.13;;;11.23;;
41943;SDS011;27636;52.610;13.244;2023-02-15T00:50:27;36.25;;;9.25;;
41943;SDS011;27636;52.610;13.244;2023-02-15T00:55:33;21.93;;;7.43;;
41943;SDS011;27636;52.610;13.244;2023-02-15T01:00:38;24.88;;;7.95;;
41943;SDS011;27636;52.610;13.244;2023-02-15T01:05:42;25.05;;;10.55;;
41943;SDS011;27636;52.610;13.244;2023-02-15T01:10:47;22.60;;;10.65;;
41943;SDS011;27636;52.610;13.244;2023-02-15T01:15:53;26.10;;;11.20;;
41943;SDS011;27636;52.610;13.244;2023-02-15T01:20:58;31.98;;;9.93;;
41943;SDS011;27636;52.610;13.244;2023-02-15T01:26:03;29.92;;;9.90;;
41943;SDS011;27636;52.610;13.244;2023-02-15T01:31:08;25.33;;;9.65;;
41943;SDS011;27636;52.610;13.244;2023-02-15T01:36:13;31.52;;;10.70;;
41943;SDS011;27636;52.610;13.244;2023-02-15T01:41:19;25.67;;;9.97;;
41943;SDS011;27636;52.610;13.244;2023-02-15T01:46:24;26.85;;;11.93;;
41943;SDS011;27636;52.610;13.244;2023-02-15T01:51:33;24.90;;;10.18;;
41943;SDS011;27636;52.610;13.244;2023-02-15T01:56:40;23.95;;;8.73;;
41943;SDS011;27636;52.610;13.244;2023-02-15T02:01:45;26.67;;;9.23;;
41943;SDS011;27636;52.610;13.244;2023-02-15T02:06:49;36.83;;;10.57;;
41943;SDS011;27636;52.610;13.244;2023-02-15T02:11:56;17.95;;;8.93;;
41943;SDS011;27636;52.610;13.244;2023-02-15T02:17:02;17.67;;;7.75;;
41943;SDS011;27636;52.610;13.244;2023-02-15T02:22:33;26.90;;;9.80;;
41943;SDS011;27636;52.610;13.244;2023-02-15T02:28:08;26.80;;;8.93;;
41943;SDS011;27636;52.610;13.244;2023-02-15T02:33:33;25.23;;;9.38;;
41943;SDS011;27636;52.610;13.244;2023-02-15T02:38:48;20.83;;;10.45;;
41943;SDS011;27636;52.610;13.244;2023-02-15T02:44:05;23.02;;;7.00;;
41943;SDS011;27636;52.610;13.244;2023-02-15T02:49:20;31.50;;;11.00;;
41943;SDS011;27636;52.610;13.244;2023-02-15T02:54:36;16.95;;;8.25;;
41943;SDS011;27636;52.610;13.244;2023-02-15T02:59:43;22.77;;;11.15;;
41943;SDS011;27636;52.610;13.244;2023-02-15T03:04:52;35.80;;;11.85;;
41943;SDS011;27636;52.610;13.244;2023-02-15T03:10:08;24.23;;;9.10;;
41943;SDS011;27636;52.610;13.244;2023-02-15T03:15:14;32.38;;;9.55;;
41943;SDS011;27636;52.610;13.244;2023-02-15T03:20:24;26.48;;;8.90;;
41943;SDS011;27636;52.610;13.244;2023-02-15T03:25:31;40.47;;;11.70;;
41943;SDS011;27636;52.610;13.244;2023-02-15T03:30:37;24.35;;;7.93;;
41943;SDS011;27636;52.610;13.244;2023-02-15T03:35:45;29.30;;;10.48;;
41943;SDS011;27636;52.610;13.244;2023-02-15T03:40:52;21.55;;;8.80;;
41943;SDS011;27636;52.610;13.244;2023-02-15T03:46:15;30.58;;;10.02;;
41943;SDS011;27636;52.610;13.244;2023-02-15T03:51:25;24.50;;;10.57;;
41943;SDS011;27636;52.610;13.244;2023-02-15T04:01:44;29.23;;;9.75;;
41943;SDS011;27636;52.610;13.244;2023-02-15T04:07:03;34.45;;;11.10;;
41943;SDS011;27636;52.610;13.244;2023-02-15T04:12:08;30.25;;;11.30;;
41943;SDS011;27636;52.610;13.244;2023-02-15T04:17:12;31.20;;;11.50;;
41943;SDS011;27636;52.610;13.244;2023-02-15T04:22:17;37.90;;;12.48;;
41943;SDS011;27636;52.610;13.244;2023-02-15T04:27:40;33.97;;;12.27;;
41943;SDS011;27636;52.610;13.244;2023-02-15T04:37:49;40.92;;;13.48;;
41943;SDS011;27636;52.610;13.244;2023-02-15T04:42:53;34.00;;;15.60;;
41943;SDS011;27636;52.610;13.244;2023-02-15T04:47:57;37.47;;;14.70;;
41943;SDS011;27636;52.610;13.244;2023-02-15T04:53:02;32.30;;;13.23;;
41943;SDS011;27636;52.610;13.244;2023-02-15T04:58:06;28.15;;;12.55;;
41943;SDS011;27636;52.610;13.244;2023-02-15T05:03:10;37.08;;;13.85;;
41943;SDS011;27636;52.610;13.244;2023-02-15T05:08:16;40.88;;;14.80;;
41943;SDS011;27636;52.610;13.244;2023-02-15T05:13:19;31.25;;;11.65;;
41943;SDS011;27636;52.610;13.244;2023-02-15T05:18:23;24.45;;;10.88;;
41943;SDS011;27636;52.610;13.244;2023-02-15T05:23:28;47.47;;;13.25;;
41943;SDS011;27636;52.610;13.244;2023-02-15T05:28:32;46.38;;;14.65;;
41943;SDS011;27636;52.610;13.244;2023-02-15T05:33:36;29.50;;;12.45;;
41943;SDS011;27636;52.610;13.244;2023-02-15T05:38:41;31.65;;;12.65;;
41943;SDS011;27636;52.610;13.244;2023-02-15T05:43:45;40.85;;;11.73;;
41943;SDS011;27636;52.610;13.244;2023-02-15T05:48:49;46.00;;;16.97;;
41943;SDS011;27636;52.610;13.244;2023-02-15T05:53:54;44.25;;;15.98;;
41943;SDS011;27636;52.610;13.244;2023-02-15T05:58:58;34.72;;;13.25;;
41943;SDS011;27636;52.610;13.244;2023-02-15T06:04:02;33.75;;;13.38;;
41943;SDS011;27636;52.610;13.244;2023-02-15T06:09:07;42.15;;;16.48;;
41943;SDS011;27636;52.610;13.244;2023-02-15T06:14:11;49.08;;;16.17;;
41943;SDS011;27636;52.610;13.244;2023-02-15T06:19:20;45.85;;;14.15;;
41943;SDS011;27636;52.610;13.244;2023-02-15T06:24:26;41.40;;;11.38;;
41943;SDS011;27636;52.610;13.244;2023-02-15T06:29:34;36.60;;;13.55;;
41943;SDS011;27636;52.610;13.244;2023-02-15T06:34:38;48.03;;;15.13;;
41943;SDS011;27636;52.610;13.244;2023-02-15T06:39:43;30.77;;;10.87;;
41943;SDS011;27636;52.610;13.244;2023-02-15T06:44:47;38.92;;;14.10;;
41943;SDS011;27636;52.610;13.244;2023-02-15T06:49:51;58.33;;;15.82;;
41943;SDS011;27636;52.610;13.244;2023-02-15T06:54:56;44.53;;;15.73;;
41943;SDS011;27636;52.610;13.244;2023-02-15T06:59:59;37.00;;;12.20;;
41943;SDS011;27636;52.610;13.244;2023-02-15T07:05:06;43.22;;;15.82;;
41943;SDS011;27636;52.610;13.244;2023-02-15T07:10:13;32.05;;;12.70;;
41943;SDS011;27636;52.610;13.244;2023-02-15T07:15:18;67.45;;;17.58;;
41943;SDS011;27636;52.610;13.244;2023-02-15T07:20:24;48.47;;;13.52;;
41943;SDS011;27636;52.610;13.244;2023-02-15T07:25:29;70.40;;;19.17;;
41943;SDS011;27636;52.610;13.244;2023-02-15T07:30:36;64.95;;;17.08;;
41943;SDS011;27636;52.610;13.244;2023-02-15T07:35:45;58.72;;;18.83;;
41943;SDS011;27636;52.610;13.244;2023-02-15T07:40:51;67.45;;;20.95;;
41943;SDS011;27636;52.610;13.244;2023-02-15T07:46:00;73.38;;;21.77;;
41943;SDS011;27636;52.610;13.244;2023-02-15T07:51:06;72.00;;;19.25;;
41943;SDS011;27636;52.610;13.244;2023-02-15T07:56:13;63.53;;;21.70;;
41943;SDS011;27636;52.610;13.244;2023-02-15T08:01:17;53.95;;;19.10;;
41943;SDS011;27636;52.610;13.244;2023-02-15T08:06:23;65.13;;;21.52;;
41943;SDS011;27636;52.610;13.244;2023-02-15T08:11:29;50.95;;;20.05;;
41943;SDS011;27636;52.610;13.244;2023-02-15T08:16:42;53.10;;;16.15;;
41943;SDS011;27636;52.610;13.244;2023-02-15T08:21:48;51.97;;;18.95;;
41943;SDS011;27636;52.610;13.244;2023-02-15T08:26:55;52.72;;;17.30;;
41943;SDS011;27636;52.610;13.244;2023-02-15T08:32:00;64.90;;;19.88;;
41943;SDS011;27636;52.610;13.244;2023-02-15T08:37:06;62.72;;;19.02;;
41943;SDS011;27636;52.610;13.244;2023-02-15T08:42:11;54.20;;;18.75;;
41943;SDS011;27636;52.610;13.244;2023-02-15T08:47:14;57.67;;;21.08;;
41943;SDS011;27636;52.610;13.244;2023-02-15T08:52:18;61.92;;;21.73;;
41943;SDS011;27636;52.610;13.244;2023-02-15T08:57:23;63.08;;;19.98;;
41943;SDS011;27636;52.610;13.244;2023-02-15T09:02:28;60.03;;;20.63;;
41943;SDS011;27636;52.610;13.244;2023-02-15T09:07:32;58.20;;;19.58;;
41943;SDS011;27636;52.610;13.244;2023-02-15T09:12:37;56.05;;;18.33;;
41943;SDS011;27636;52.610;13.244;2023-02-15T09:17:41;79.95;;;21.15;;
41943;SDS011;27636;52.610;13.244;2023-02-15T09:22:45;56.33;;;18.83;;
41943;SDS011;27636;52.610;13.244;2023-02-15T09:27:51;65.68;;;22.60;;
41943;SDS011;27636;52.610;13.244;2023-02-15T09:32:55;63.10;;;21.27;;
41943;SDS011;27636;52.610;13.244;2023-02-15T09:37:59;55.97;;;20.48;;
41943;SDS011;27636;52.610;13.244;2023-02-15T09:48:37;48.53;;;18.95;;
41943;SDS011;27636;52.610;13.244;2023-02-15T09:53:47;54.15;;;20.45;;
41943;SDS011;27636;52.610;13.244;2023-02-15T09:59:04;49.78;;;19.05;;
41943;SDS011;27636;52.610;13.244;2023-02-15T10:04:19;51.78;;;18.52;;
41943;SDS011;27636;52.610;13.244;2023-02-15T10:09:35;48.75;;;19.17;;
41943;SDS011;27636;52.610;13.244;2023-02-15T10:20:18;48.15;;;20.17;;
41943;SDS011;27636;52.610;13.244;2023-02-15T10:25:33;47.60;;;19.42;;
41943;SDS011;27636;52.610;13.244;2023-02-15T10:30:47;55.93;;;19.93;;
41943;SDS011;27636;52.610;13.244;2023-02-15T10:35:55;51.13;;;17.88;;
41943;SDS011;27636;52.610;13.244;2023-02-15T10:41:13;56.22;;;17.67;;
41943;SDS011;27636;52.610;13.244;2023-02-15T10:46:33;49.28;;;17.17;;
41943;SDS011;27636;52.610;13.244;2023-02-15T10:51:50;54.92;;;17.75;;
41943;SDS011;27636;52.610;13.244;2023-02-15T10:57:08;54.22;;;18.67;;
41943;SDS011;27636;52.610;13.244;2023-02-15T11:02:25;49.03;;;18.48;;
41943;SDS011;27636;52.610;13.244;2023-02-15T11:07:43;45.78;;;16.77;;
41943;SDS011;27636;52.610;13.244;2023-02-15T11:12:48;41.60;;;16.17;;
41943;SDS011;27636;52.610;13.244;2023-02-15T11:23:01;45.15;;;15.43;;
41943;SDS011;27636;52.610;13.244;2023-02-15T11:28:06;36.03;;;13.50;;
41943;SDS011;27636;52.610;13.244;2023-02-15T11:33:22;27.93;;;11.63;;
41943;SDS011;27636;52.610;13.244;2023-02-15T11:38:31;38.92;;;15.77;;
41943;SDS011;27636;52.610;13.244;2023-02-15T11:43:36;33.67;;;12.88;;
41943;SDS011;27636;52.610;13.244;2023-02-15T11:48:46;27.45;;;11.18;;
41943;SDS011;27636;52.610;13.244;2023-02-15T11:53:50;33.53;;;12.85;;
41943;SDS011;27636;52.610;13.244;2023-02-15T11:58:55;30.53;;;12.03;;
41943;SDS011;27636;52.610;13.244;2023-02-15T12:04:04;25.83;;;10.52;;
41943;SDS011;27636;52.610;13.244;2023-02-15T12:09:15;30.10;;;10.93;;
41943;SDS011;27636;52.610;13.244;2023-02-15T12:14:25;23.45;;;9.55;;
41943;SDS011;27636;52.610;13.244;2023-02-15T12:19:31;25.88;;;10.65;;
41943;SDS011;27636;52.610;13.244;2023-02-15T12:24:43;27.05;;;11.20;;
41943;SDS011;27636;52.610;13.244;2023-02-15T12:29:49;20.83;;;9.05;;
41943;SDS011;27636;52.610;13.244;2023-02-15T12:35:00;24.30;;;10.23;;
41943;SDS011;27636;52.610;13.244;2023-02-15T12:40:18;21.77;;;9.20;;
41943;SDS011;27636;52.610;13.244;2023-02-15T12:45:24;23.20;;;10.57;;
41943;SDS011;27636;52.610;13.244;2023-02-15T12:50:31;21.75;;;10.20;;
41943;SDS011;27636;52.610;13.244;2023-02-15T12:55:37;21.63;;;9.55;;
41943;SDS011;27636;52.610;13.244;2023-02-15T13:00:47;22.80;;;9.60;;
41943;SDS011;27636;52.610;13.244;2023-02-15T13:06:05;20.52;;;9.38;;
41943;SDS011;27636;52.610;13.244;2023-02-15T13:11:11;23.55;;;10.23;;
41943;SDS011;27636;52.610;13.244;2023-02-15T13:16:15;23.20;;;9.48;;
41943;SDS011;27636;52.610;13.244;2023-02-15T13:21:25;22.92;;;10.88;;
41943;SDS011;27636;52.610;13.244;2023-02-15T13:26:31;25.58;;;10.45;;
41943;SDS011;27636;52.610;13.244;2023-02-15T13:31:38;27.08;;;11.35;;
41943;SDS011;27636;52.610;13.244;2023-02-15T13:36:47;21.60;;;9.15;;
41943;SDS011;27636;52.610;13.244;2023-02-15T13:41:56;23.42;;;10.60;;
41943;SDS011;27636;52.610;13.244;2023-02-15T13:47:08;27.40;;;10.57;;
41943;SDS011;27636;52.610;13.244;2023-02-15T13:52:20;28.08;;;11.20;;
41943;SDS011;27636;52.610;13.244;2023-02-15T13:57:30;21.88;;;10.05;;
41943;SDS011;27636;52.610;13.244;2023-02-15T14:03:04;23.40;;;10.32;;
41943;SDS011;27636;52.610;13.244;2023-02-15T14:08:25;26.70;;;10.45;;
41943;SDS011;27636;52.610;13.244;2023-02-15T14:13:55;29.85;;;11.70;;
41943;SDS011;27636;52.610;13.244;2023-02-15T14:19:15;27.05;;;10.98;;
41943;SDS011;27636;52.610;13.244;2023-02-15T14:24:28;32.03;;;11.50;;
41943;SDS011;27636;52.610;13.244;2023-02-15T14:29:47;22.92;;;8.85;;
41943;SDS011;27636;52.610;13.244;2023-02-15T14:34:55;26.23;;;10.68;;
41943;SDS011;27636;52.610;13.244;2023-02-15T14:40:03;27.05;;;9.82;;
41943;SDS011;27636;52.610;13.244;2023-02-15T14:45:30;25.70;;;8.88;;
41943;SDS011;27636;52.610;13.244;2023-02-15T14:50:47;34.03;;;11.98;;
41943;SDS011;27636;52.610;13.244;2023-02-15T14:56:06;29.73;;;10.48;;
41943;SDS011;27636;52.610;13.244;2023-02-15T15:01:24;23.00;;;9.32;;
41943;SDS011;27636;52.610;13.244;2023-02-15T15:06:30;23.35;;;10.10;;
41943;SDS011;27636;52.610;13.244;2023-02-15T15:11:41;21.80;;;10.00;;
41943;SDS011;27636;52.610;13.244;2023-02-15T15:16:47;24.08;;;8.80;;
41943;SDS011;27636;52.610;13.244;2023-02-15T15:21:55;23.70;;;8.55;;
41943;SDS011;27636;52.610;13.244;2023-02-15T15:32:48;24.25;;;8.75;;
41943;SDS011;27636;52.610;13.244;2023-02-15T15:38:16;24.55;;;8.82;;
41943;SDS011;27636;52.610;13.244;2023-02-15T15:43:34;20.80;;;9.07;;
41943;SDS011;27636;52.610;13.244;2023-02-15T15:49:16;20.92;;;7.65;;
41943;SDS011;27636;52.610;13.244;2023-02-15T15:54:23;22.52;;;8.00;;
41943;SDS011;27636;52.610;13.244;2023-02-15T15:59:29;21.23;;;9.30;;
41943;SDS011;27636;52.610;13.244;2023-02-15T16:04:36;20.50;;;8.02;;
41943;SDS011;27636;52.610;13.244;2023-02-15T16:09:40;19.95;;;8.10;;
41943;SDS011;27636;52.610;13.244;2023-02-15T16:14:43;21.55;;;8.43;;
41943;SDS011;27636;52.610;13.244;2023-02-15T16:19:51;25.52;;;9.07;;
41943;SDS011;27636;52.610;13.244;2023-02-15T16:25:15;20.50;;;9.73;;
41943;SDS011;27636;52.610;13.244;2023-02-15T16:30:29;17.55;;;7.47;;
41943;SDS011;27636;52.610;13.244;2023-02-15T16:35:36;25.67;;;10.00;;
41943;SDS011;27636;52.610;13.244;2023-02-15T16:40:43;20.77;;;8.38;;
41943;SDS011;27636;52.610;13.244;2023-02-15T16:45:51;23.85;;;8.48;;
41943;SDS011;27636;52.610;13.244;2023-02-15T16:51:03;20.13;;;8.27;;
41943;SDS011;27636;52.610;13.244;2023-02-15T16:56:08;20.58;;;7.70;;
41943;SDS011;27636;52.610;13.244;2023-02-15T17:01:13;20.90;;;9.13;;
41943;SDS011;27636;52.610;13.244;2023-02-15T17:06:21;22.17;;;9.10;;
41943;SDS011;27636;52.610;13.244;2023-02-15T17:11:33;28.20;;;9.60;;
41943;SDS011;27636;52.610;13.244;2023-02-15T17:16:40;20.75;;;8.52;;
41943;SDS011;27636;52.610;13.244;2023-02-15T17:21:50;22.13;;;9.25;;
41943;SDS011;27636;52.610;13.244;2023-02-15T17:26:56;25.30;;;9.70;;
41943;SDS011;27636;52.610;13.244;2023-02-15T17:32:04;22.73;;;9.18;;
41943;SDS011;27636;52.610;13.244;2023-02-15T17:37:11;24.60;;;10.27;;
41943;SDS011;27636;52.610;13.244;2023-02-15T17:42:16;26.52;;;9.35;;
41943;SDS011;27636;52.610;13.244;2023-02-15T17:47:22;25.20;;;11.00;;
41943;SDS011;27636;52.610;13.244;2023-02-15T17:52:29;28.35;;;10.48;;
41943;SDS011;27636;52.610;13.244;2023-02-15T18:02:36;23.05;;;9.68;;
41943;SDS011;27636;52.610;13.244;2023-02-15T18:08:00;40.60;;;15.23;;
41943;SDS011;27636;52.610;13.244;2023-02-15T18:13:22;35.60;;;13.40;;
41943;SDS011;27636;52.610;13.244;2023-02-15T18:18:26;36.80;;;14.48;;
41943;SDS011;27636;52.610;13.244;2023-02-15T18:23:31;30.35;;;12.00;;
41943;SDS011;27636;52.610;13.244;2023-02-15T18:28:34;29.58;;;12.85;;
41943;SDS011;27636;52.610;13.244;2023-02-15T18:33:39;28.23;;;13.27;;
41943;SDS011;27636;52.610;13.244;2023-02-15T18:38:48;34.28;;;13.35;;
41943;SDS011;27636;52.610;13.244;2023-02-15T18:43:51;43.95;;;14.15;;
41943;SDS011;27636;52.610;13.244;2023-02-15T18:48:58;32.22;;;11.27;;
41943;SDS011;27636;52.610;13.244;2023-02-15T18:54:04;40.20;;;13.15;;
41943;SDS011;27636;52.610;13.244;2023-02-15T18:59:14;33.55;;;13.75;;
41943;SDS011;27636;52.610;13.244;2023-02-15T19:04:20;29.05;;;12.30;;
41943;SDS011;27636;52.610;13.244;2023-02-15T19:09:30;24.45;;;10.45;;
41943;SDS011;27636;52.610;13.244;2023-02-15T19:14:36;25.55;;;12.57;;
41943;SDS011;27636;52.610;13.244;2023-02-15T19:19:41;34.70;;;14.85;;
41943;SDS011;27636;52.610;13.244;2023-02-15T19:24:48;24.75;;;11.65;;
41943;SDS011;27636;52.610;13.244;2023-02-15T19:29:55;26.13;;;12.32;;
41943;SDS011;27636;52.610;13.244;2023-02-15T19:35:02;30.33;;;15.00;;
41943;SDS011;27636;52.610;13.244;2023-02-15T19:40:16;28.58;;;11.15;;
41943;SDS011;27636;52.610;13.244;2023-02-15T19:45:24;32.40;;;13.00;;
41943;SDS011;27636;52.610;13.244;2023-02-15T19:50:31;30.60;;;13.00;;
41943;SDS011;27636;52.610;13.244;2023-02-15T19:55:39;36.13;;;13.02;;
41943;SDS011;27636;52.610;13.244;2023-02-15T20:00:43;36.85;;;13.32;;
41943;SDS011;27636;52.610;13.244;2023-02-15T20:05:50;29.95;;;12.57;;
41943;SDS011;27636;52.610;13.244;2023-02-15T20:10:56;40.17;;;14.60;;
41943;SDS011;27636;52.610;13.244;2023-02-15T20:16:01;28.98;;;11.27;;
41943;SDS011;27636;52.610;13.244;2023-02-15T20:21:09;31.77;;;12.60;;
41943;SDS011;27636;52.610;13.244;2023-02-15T20:26:22;39.97;;;13.48;;
41943;SDS011;27636;52.610;13.244;2023-02-15T20:31:33;26.83;;;12.32;;
41943;SDS011;27636;52.610;13.244;2023-02-15T20:36:37;35.92;;;13.52;;
41943;SDS011;27636;52.610;13.244;2023-02-15T20:41:43;41.95;;;15.52;;
41943;SDS011;27636;52.610;13.244;2023-02-15T20:46:52;37.63;;;14.32;;
41943;SDS011;27636;52.610;13.244;2023-02-15T20:51:58;25.85;;;11.27;;
41943;SDS011;27636;52.610;13.244;2023-02-15T20:57:07;34.42;;;13.98;;
41943;SDS011;27636;52.610;13.244;2023-02-15T21:02:15;34.42;;;13.43;;
41943;SDS011;27636;52.610;13.244;2023-02-15T21:07:22;44.05;;;13.98;;
41943;SDS011;27636;52.610;13.244;2023-02-15T21:12:28;38.25;;;15.48;;
41943;SDS011;27636;52.610;13.244;2023-02-15T21:17:31;24.17;;;12.73;;
41943;SDS011;27636;52.610;13.244;2023-02-15T21:22:35;37.65;;;17.33;;
41943;SDS011;27636;52.610;13.244;2023-02-15T21:27:41;39.40;;;15.80;;
41943;SDS011;27636;52.610;13.244;2023-02-15T21:32:45;48.08;;;17.90;;
41943;SDS011;27636;52.610;13.244;2023-02-15T21:37:49;37.80;;;19.88;;
41943;SDS011;27636;52.610;13.244;2023-02-15T21:42:55;45.38;;;15.95;;
41943;SDS011;27636;52.610;13.244;2023-02-15T21:48:17;46.17;;;19.58;;
41943;SDS011;27636;52.610;13.244;2023-02-15T21:53:23;57.13;;;23.23;;
41943;SDS011;27636;52.610;13.244;2023-02-15T21:58:31;40.38;;;20.20;;
41943;SDS011;27636;52.610;13.244;2023-02-15T22:03:37;57.35;;;22.63;;
41943;SDS011;27636;52.610;13.244;2023-02-15T22:08:41;57.63;;;22.33;;
41943;SDS011;27636;52.610;13.244;2023-02-15T22:13:46;49.53;;;21.50;;
41943;SDS011;27636;52.610;13.244;2023-02-15T22:18:50;49.35;;;21.92;;
41943;SDS011;27636;52.610;13.244;2023-02-15T22:23:54;45.47;;;18.88;;
41943;SDS011;27636;52.610;13.244;2023-02-15T22:28:59;44.53;;;19.23;;
41943;SDS011;27636;52.610;13.244;2023-02-15T22:34:03;51.90;;;21.73;;
41943;SDS011;27636;52.610;13.244;2023-02-15T22:39:06;52.13;;;19.83;;
41943;SDS011;27636;52.610;13.244;2023-02-15T22:44:12;41.53;;;19.25;;
41943;SDS011;27636;52.610;13.244;2023-02-15T22:49:21;57.28;;;20.15;;
41943;SDS011;27636;52.610;13.244;2023-02-15T22:54:24;37.67;;;19.10;;
41943;SDS011;27636;52.610;13.244;2023-02-15T22:59:29;42.80;;;21.50;;
41943;SDS011;27636;52.610;13.244;2023-02-15T23:04:36;43.92;;;21.33;;
41943;SDS011;27636;52.610;13.244;2023-02-15T23:09:39;43.47;;;18.75;;
41943;SDS011;27636;52.610;13.244;2023-02-15T23:14:44;45.38;;;20.50;;
41943;SDS011;27636;52.610;13.244;2023-02-15T23:19:47;44.92;;;19.77;;
41943;SDS011;27636;52.610;13.244;2023-02-15T23:24:51;56.53;;;22.00;;
41943;SDS011;27636;52.610;13.244;2023-02-15T23:29:57;31.55;;;17.33;;
41943;SDS011;27636;52.610;13.244;2023-02-15T23:35:00;58.35;;;20.50;;
41943;SDS011;27636;52.610;13.244;2023-02-15T23:40:04;44.22;;;17.27;;
41943;SDS011;27636;52.610;13.244;2023-02-15T23:45:28;72.37;;;21.37;;
41943;SDS011;27636;52.610;13.244;2023-02-15T23:50:39;44.72;;;19.35;;
41943;SDS011;27636;52.610;13.244;2023-02-15T23:55:43;44.25;;;19.30;;
